MA81 weather

Digital Heliport
Westminster, Massachusetts, United States

Public forecast

Using degrees Fahrenheit for public forecast. Weather courtesy of forecast.io.

METAR (pilot weather report)

Closest report is Fitchburg Municipal Airport, 7.4 nm (13.6 km) E. Retrieved 2019/07/24 01:52 UTC (35 minutes ago):

KFIT 240152Z AUTO 00000KT 10SM CLR 19/17 A2994 RMK AO2 RAE0056 SLP137 P0000 T01890167

TAF (pilot weather forecast)

Forecast is more than 12 hours old.

Closest forecast is Worcester Regional Airport, 17.4 nm (32.3 km) S. Retrieved 2019/07/23 00:27 UTC (1 day ago):

TAF KORH 232325Z 2400/2424 00000KT P6SM OVC090 FM240600 00000KT P6SM OVC030 FM240900 00000KT P6SM BKN010 FM241100 35004KT P6SM BKN020 FM241300 36006KT P6SM BKN070